createdAt,value
2018-06-24T00:01:09.886Z,15.40
2018-06-24T00:03:40.173Z,15.30
2018-06-24T00:06:11.267Z,15.40
2018-06-24T00:08:42.286Z,15.40
2018-06-24T00:11:12.832Z,15.40
2018-06-24T00:13:43.229Z,15.40
2018-06-24T00:16:13.141Z,15.40
2018-06-24T00:18:43.076Z,15.30
2018-06-24T00:21:12.990Z,15.30
2018-06-24T00:23:42.968Z,15.20
2018-06-24T00:26:13.328Z,15.20
2018-06-24T00:28:43.491Z,15.80
2018-06-24T00:31:13.720Z,15.20
2018-06-24T00:33:45.588Z,15.20
2018-06-24T00:36:15.428Z,15.20
2018-06-24T00:38:46.040Z,15.40
2018-06-24T00:41:16.442Z,15.40
2018-06-24T00:43:46.598Z,15.50
2018-06-24T00:46:18.148Z,15.50
2018-06-24T00:48:48.005Z,15.50
2018-06-24T00:51:18.254Z,15.60
2018-06-24T00:53:48.277Z,16.40
2018-06-24T00:56:18.295Z,15.60
2018-06-24T00:58:48.259Z,15.50
2018-06-24T01:01:18.422Z,15.60
2018-06-24T01:03:48.429Z,15.40
2018-06-24T01:06:18.391Z,15.50
2018-06-24T01:08:48.165Z,15.50
2018-06-24T01:11:19.444Z,15.60
2018-06-24T01:16:19.495Z,15.60
2018-06-24T01:18:50.799Z,15.60
2018-06-24T01:21:20.745Z,15.70
2018-06-24T01:23:50.829Z,15.70
2018-06-24T01:26:21.083Z,15.70
2018-06-24T01:28:51.220Z,15.80
2018-06-24T01:31:21.131Z,15.80
2018-06-24T01:33:51.165Z,15.80
2018-06-24T01:36:21.279Z,15.80
2018-06-24T01:41:21.685Z,15.80
2018-06-24T01:43:57.795Z,15.80
2018-06-24T01:46:33.795Z,15.70
2018-06-24T01:49:05.774Z,15.70
2018-06-24T01:51:36.829Z,15.50
2018-06-24T01:54:17.753Z,15.60
2018-06-24T01:56:48.574Z,15.70
2018-06-24T01:59:21.020Z,17.70
2018-06-24T02:04:21.427Z,15.80
2018-06-24T02:06:59.715Z,16.60
2018-06-24T02:09:30.006Z,15.70
2018-06-24T02:12:02.700Z,15.80
2018-06-24T02:14:42.533Z,15.70
2018-06-24T02:17:14.688Z,15.60
2018-06-24T02:20:03.825Z,15.60
2018-06-24T02:22:35.513Z,15.60
2018-06-24T02:25:11.727Z,15.70
2018-06-24T02:27:44.088Z,15.70
2018-06-24T02:30:16.393Z,15.70
2018-06-24T02:33:15.221Z,15.70
2018-06-24T02:35:52.752Z,15.60
2018-06-24T02:38:24.551Z,15.70
2018-06-24T02:40:58.125Z,15.70
2018-06-24T02:43:32.402Z,15.60
2018-06-24T02:46:10.336Z,15.60
2018-06-24T02:48:41.378Z,15.70
2018-06-24T02:51:15.911Z,15.70
2018-06-24T02:53:48.474Z,15.70
2018-06-24T02:56:20.450Z,15.80
2018-06-24T02:58:59.325Z,15.70
2018-06-24T03:01:41.371Z,15.50
2018-06-24T03:04:17.418Z,15.60
2018-06-24T03:06:50.476Z,15.30
2018-06-24T03:09:27.058Z,15.20
2018-06-24T03:12:03.831Z,15.40
2018-06-24T03:14:51.464Z,15.50
2018-06-24T03:17:25.335Z,15.60
2018-06-24T03:19:57.742Z,15.60
2018-06-24T03:22:31.255Z,15.60
2018-06-24T03:25:04.048Z,15.70
2018-06-24T03:27:39.972Z,15.70
2018-06-24T03:30:11.284Z,15.70
2018-06-24T03:32:44.868Z,15.70
2018-06-24T03:35:16.936Z,15.70
2018-06-24T03:37:48.290Z,15.70
2018-06-24T03:40:23.757Z,15.00
2018-06-24T03:42:55.318Z,14.50
2018-06-24T03:45:58.650Z,15.60
2018-06-24T03:48:32.079Z,15.60
2018-06-24T03:51:03.236Z,15.60
2018-06-24T03:53:34.462Z,15.30
2018-06-24T03:56:05.909Z,15.20
2018-06-24T03:58:36.993Z,15.30
2018-06-24T04:01:10.382Z,15.50
2018-06-24T04:03:44.375Z,15.70
2018-06-24T04:06:14.753Z,15.90
2018-06-24T04:08:45.598Z,16.00
2018-06-24T04:13:55.739Z,16.20
2018-06-24T04:16:26.996Z,16.10
2018-06-24T04:19:05.331Z,16.10
2018-06-24T04:21:41.342Z,16.40
2018-06-24T04:24:11.138Z,16.60
2018-06-24T04:26:42.974Z,16.70
2018-06-24T04:29:16.843Z,16.80
2018-06-24T04:31:47.838Z,16.80
2018-06-24T04:34:24.297Z,16.90
2018-06-24T04:36:57.317Z,17.00
2018-06-24T04:39:29.454Z,17.00
2018-06-24T04:42:00.903Z,18.60
2018-06-24T04:47:15.854Z,17.00
2018-06-24T04:49:50.061Z,17.00
2018-06-24T04:52:24.448Z,16.90
2018-06-24T04:57:47.726Z,17.00
2018-06-24T05:00:20.506Z,17.80
2018-06-24T05:02:51.544Z,18.70
2018-06-24T05:05:22.192Z,19.30
2018-06-24T05:07:53.521Z,19.30
2018-06-24T05:10:27.004Z,20.00
2018-06-24T05:13:04.563Z,21.10
2018-06-24T05:15:39.355Z,21.50
2018-06-24T05:18:12.278Z,21.10
2018-06-24T05:20:43.706Z,20.60
2018-06-24T05:23:15.049Z,20.70
2018-06-24T05:25:45.146Z,21.70
2018-06-24T05:28:15.869Z,21.80
2018-06-24T05:30:48.511Z,22.10
2018-06-24T05:33:21.582Z,22.00
2018-06-24T05:35:52.741Z,21.10
2018-06-24T05:38:27.930Z,21.60
2018-06-24T05:41:02.286Z,22.50
2018-06-24T05:43:33.861Z,23.00
2018-06-24T05:46:04.495Z,20.50
2018-06-24T05:48:35.852Z,19.50
2018-06-24T05:51:06.613Z,19.20
2018-06-24T05:53:38.253Z,18.90
2018-06-24T05:56:10.487Z,18.70
2018-06-24T05:58:42.327Z,18.60
2018-06-24T06:01:16.661Z,18.50
2018-06-24T06:03:49.605Z,18.70
2018-06-24T06:06:23.370Z,18.50
2018-06-24T06:08:55.387Z,18.60
2018-06-24T06:11:27.654Z,18.70
2018-06-24T06:13:57.585Z,18.80
2018-06-24T06:16:32.818Z,19.00
2018-06-24T06:19:02.924Z,18.70
2018-06-24T06:21:39.541Z,19.00
2018-06-24T06:24:14.096Z,19.30
2018-06-24T06:26:48.456Z,19.60
2018-06-24T06:29:20.516Z,21.60
2018-06-24T06:31:54.328Z,22.80
2018-06-24T06:34:27.243Z,23.30
2018-06-24T06:36:58.450Z,22.70
2018-06-24T06:39:29.656Z,22.40
2018-06-24T06:42:04.533Z,21.40
2018-06-24T06:47:08.143Z,20.30
2018-06-24T06:49:41.770Z,19.90
2018-06-24T06:52:15.484Z,19.10
2018-06-24T06:54:55.334Z,18.80
2018-06-24T06:57:26.063Z,18.70
2018-06-24T06:59:56.467Z,18.90
2018-06-24T07:02:27.978Z,17.80
2018-06-24T07:05:05.013Z,17.60
2018-06-24T07:07:37.746Z,19.20
2018-06-24T07:10:14.869Z,19.10
2018-06-24T07:12:50.098Z,19.50
2018-06-24T07:15:26.615Z,19.80
2018-06-24T07:17:59.445Z,19.80
2018-06-24T07:20:31.737Z,19.80
2018-06-24T07:23:02.319Z,19.60
2018-06-24T07:26:37.341Z,20.10
2018-06-24T07:29:10.677Z,19.30
2018-06-24T07:31:46.469Z,19.60
2018-06-24T07:34:16.584Z,19.30
2018-06-24T07:36:49.627Z,19.40
2018-06-24T07:39:21.720Z,19.20
2018-06-24T07:44:31.702Z,18.60
2018-06-24T07:47:05.401Z,18.90
2018-06-24T07:49:38.930Z,19.30
2018-06-24T07:52:11.645Z,19.50
2018-06-24T07:54:43.364Z,19.60
2018-06-24T07:57:14.342Z,19.20
2018-06-24T07:59:52.204Z,19.60
2018-06-24T08:02:31.685Z,21.10
2018-06-24T08:05:04.841Z,19.50
2018-06-24T08:07:36.550Z,19.40
2018-06-24T08:10:10.263Z,19.60
2018-06-24T08:12:43.572Z,19.90
2018-06-24T08:15:17.065Z,19.30
2018-06-24T08:17:51.079Z,19.10
2018-06-24T08:20:24.929Z,19.20
2018-06-24T08:22:56.655Z,19.30
2018-06-24T08:25:29.543Z,19.10
2018-06-24T08:28:10.329Z,18.30
2018-06-24T08:30:48.118Z,18.80
2018-06-24T08:33:20.441Z,19.30
2018-06-24T08:35:53.473Z,19.30
2018-06-24T08:38:27.842Z,18.10
2018-06-24T08:41:02.698Z,18.60
2018-06-24T08:43:37.690Z,18.80
2018-06-24T08:46:12.896Z,19.40
2018-06-24T08:48:50.101Z,17.70
2018-06-24T08:51:26.381Z,19.30
2018-06-24T08:54:00.831Z,18.70
2018-06-24T08:56:34.683Z,18.30
2018-06-24T08:59:08.037Z,17.90
2018-06-24T09:01:48.801Z,18.00
2018-06-24T09:04:25.359Z,18.00
2018-06-24T09:06:58.328Z,18.10
2018-06-24T09:12:09.913Z,18.30
2018-06-24T09:14:56.651Z,18.40
2018-06-24T09:17:32.790Z,18.40
2018-06-24T09:20:05.693Z,18.40
2018-06-24T09:22:39.975Z,18.00
2018-06-24T09:25:17.117Z,18.20
2018-06-24T09:28:10.747Z,18.50
2018-06-24T09:30:43.157Z,18.50
2018-06-24T09:33:16.439Z,18.30
2018-06-24T09:35:49.904Z,18.30
2018-06-24T09:38:24.461Z,18.00
2018-06-24T09:40:57.796Z,18.50
2018-06-24T09:43:30.700Z,18.60
2018-06-24T09:46:05.443Z,19.10
2018-06-24T09:48:39.729Z,19.10
2018-06-24T09:51:27.364Z,19.40
2018-06-24T09:54:05.638Z,19.60
2018-06-24T09:57:01.110Z,19.90
2018-06-24T09:59:36.731Z,19.70
2018-06-24T10:02:15.199Z,19.80
2018-06-24T10:04:47.300Z,19.40
2018-06-24T10:07:55.574Z,19.70
2018-06-24T10:10:29.487Z,18.70
2018-06-24T10:13:03.797Z,19.40
2018-06-24T10:15:41.608Z,19.90
2018-06-24T10:18:15.429Z,20.20
2018-06-24T10:20:48.740Z,17.80
2018-06-24T10:23:22.468Z,19.40
2018-06-24T10:26:08.120Z,19.30
2018-06-24T10:29:00.556Z,19.70
2018-06-24T10:31:51.993Z,19.90
2018-06-24T10:37:42.018Z,19.90
2018-06-24T10:40:31.181Z,19.50
2018-06-24T10:43:35.031Z,19.30
2018-06-24T10:46:11.733Z,19.30
2018-06-24T10:48:46.117Z,19.90
2018-06-24T10:51:24.063Z,20.20
2018-06-24T10:54:20.741Z,20.40
2018-06-24T10:57:01.354Z,20.60
2018-06-24T10:59:53.784Z,20.60
2018-06-24T11:02:40.601Z,20.80
2018-06-24T11:05:25.381Z,20.30
2018-06-24T11:08:04.664Z,20.40
2018-06-24T11:11:13.254Z,20.80
2018-06-24T11:16:35.396Z,21.20
2018-06-24T11:19:12.600Z,20.40
2018-06-24T11:21:47.442Z,20.00
2018-06-24T11:24:21.961Z,19.70
2018-06-24T11:27:00.829Z,19.80
2018-06-24T11:29:44.930Z,20.30
2018-06-24T11:32:23.464Z,20.20
2018-06-24T11:35:11.898Z,20.00
2018-06-24T11:37:49.903Z,19.50
2018-06-24T11:40:56.680Z,19.40
2018-06-24T11:43:34.026Z,19.40
2018-06-24T11:46:40.814Z,19.70
2018-06-24T11:49:37.512Z,20.10
2018-06-24T11:55:11.774Z,19.80
2018-06-24T11:57:59.340Z,19.40
2018-06-24T12:00:37.323Z,19.30
2018-06-24T12:03:18.368Z,19.00
2018-06-24T12:06:12.346Z,19.40
2018-06-24T12:08:46.697Z,19.80
2018-06-24T12:11:22.514Z,20.10
2018-06-24T12:14:13.622Z,20.00
2018-06-24T12:17:04.842Z,20.10
2018-06-24T12:19:43.454Z,19.60
2018-06-24T12:22:41.437Z,19.60
2018-06-24T12:25:22.073Z,19.60
2018-06-24T12:27:55.120Z,19.80
2018-06-24T12:30:29.899Z,19.80
2018-06-24T12:33:04.404Z,19.60
2018-06-24T12:41:02.594Z,20.10
2018-06-24T12:43:41.493Z,19.70
2018-06-24T12:49:15.802Z,20.40
2018-06-24T12:51:48.652Z,20.80
2018-06-24T12:54:36.542Z,21.20
2018-06-24T12:57:22.002Z,20.70
2018-06-24T12:59:55.735Z,20.40
2018-06-24T13:02:32.166Z,18.10
2018-06-24T13:05:14.409Z,19.80
2018-06-24T13:07:49.072Z,19.50
2018-06-24T13:13:07.860Z,19.90
2018-06-24T13:15:45.416Z,19.90
2018-06-24T13:18:33.797Z,20.00
2018-06-24T13:21:12.631Z,20.40
2018-06-24T13:23:57.495Z,20.60
2018-06-24T13:26:46.240Z,20.60
2018-06-24T13:29:24.824Z,20.30
2018-06-24T13:32:01.247Z,20.30
2018-06-24T13:34:43.046Z,20.20
2018-06-24T13:37:18.409Z,20.20
2018-06-24T13:39:52.504Z,20.80
2018-06-24T13:42:28.000Z,21.40
2018-06-24T13:45:00.622Z,21.30
2018-06-24T13:47:38.074Z,21.00
2018-06-24T13:50:16.377Z,20.90
2018-06-24T13:52:59.761Z,20.70
2018-06-24T13:55:37.694Z,20.20
2018-06-24T13:58:17.315Z,20.80
2018-06-24T14:00:54.492Z,21.10
2018-06-24T14:03:29.348Z,21.00
2018-06-24T14:06:07.310Z,20.80
2018-06-24T14:08:48.367Z,20.30
2018-06-24T14:11:21.901Z,20.40
2018-06-24T14:13:58.887Z,20.90
2018-06-24T14:16:36.803Z,21.20
2018-06-24T14:19:13.313Z,19.80
2018-06-24T14:22:05.297Z,20.60
2018-06-24T14:24:41.633Z,20.80
2018-06-24T14:27:26.288Z,20.30
2018-06-24T14:29:57.616Z,20.20
2018-06-24T14:32:32.913Z,20.20
2018-06-24T14:35:05.548Z,20.00
2018-06-24T14:37:39.918Z,19.90
2018-06-24T14:40:18.085Z,19.90
2018-06-24T14:42:56.293Z,19.90
2018-06-24T14:45:29.463Z,20.60
2018-06-24T14:48:07.543Z,20.70
2018-06-24T14:50:42.796Z,20.60
2018-06-24T14:53:15.580Z,20.40
2018-06-24T14:55:50.974Z,20.80
2018-06-24T14:58:29.751Z,20.80
2018-06-24T15:01:04.388Z,20.50
2018-06-24T15:03:36.928Z,20.20
2018-06-24T15:06:15.451Z,20.60
2018-06-24T15:08:50.461Z,20.60
2018-06-24T15:11:28.725Z,20.80
2018-06-24T15:14:03.898Z,20.40
2018-06-24T15:16:36.693Z,20.60
2018-06-24T15:19:12.994Z,20.10
2018-06-24T15:21:49.747Z,20.30
2018-06-24T15:24:24.395Z,20.10
2018-06-24T15:27:02.337Z,20.30
2018-06-24T15:29:39.653Z,20.10
2018-06-24T15:32:16.320Z,19.90
2018-06-24T15:34:54.765Z,19.90
2018-06-24T15:37:28.657Z,20.30
2018-06-24T15:40:03.535Z,20.30
2018-06-24T15:45:16.220Z,20.50
2018-06-24T15:47:49.045Z,20.30
2018-06-24T15:50:23.098Z,19.70
2018-06-24T15:53:00.113Z,19.70
2018-06-24T15:55:38.490Z,19.90
2018-06-24T15:58:13.676Z,20.10
2018-06-24T16:00:50.565Z,19.80
2018-06-24T16:03:26.784Z,19.70
2018-06-24T16:05:58.532Z,19.50
2018-06-24T16:08:35.579Z,19.60
2018-06-24T16:11:13.352Z,19.60
2018-06-24T16:13:46.897Z,19.60
2018-06-24T16:16:24.059Z,21.20
2018-06-24T16:18:59.728Z,19.30
2018-06-24T16:21:45.455Z,18.30
2018-06-24T16:24:23.470Z,19.20
2018-06-24T16:27:03.812Z,19.40
2018-06-24T16:29:58.365Z,19.40
2018-06-24T16:35:21.309Z,19.20
2018-06-24T16:37:58.893Z,19.30
2018-06-24T16:40:34.606Z,19.10
2018-06-24T16:45:52.500Z,19.60
2018-06-24T16:48:27.340Z,19.40
2018-06-24T16:51:03.393Z,19.20
2018-06-24T16:56:27.677Z,19.40
2018-06-24T16:59:02.546Z,19.40
2018-06-24T17:01:40.311Z,19.50
2018-06-24T17:06:51.619Z,19.30
2018-06-24T17:09:26.959Z,19.20
2018-06-24T17:12:10.988Z,19.00
2018-06-24T17:14:46.028Z,18.70
2018-06-24T17:17:18.230Z,18.80
2018-06-24T17:20:23.454Z,18.60
2018-06-24T17:22:58.387Z,18.60
2018-06-24T17:25:38.322Z,18.80
2018-06-24T17:28:15.903Z,18.40
2018-06-24T17:30:48.573Z,18.40
2018-06-24T17:33:21.905Z,19.20
2018-06-24T17:36:04.952Z,18.30
2018-06-24T17:38:51.116Z,18.40
2018-06-24T17:41:28.190Z,18.50
2018-06-24T17:44:05.599Z,18.70
2018-06-24T17:46:39.806Z,18.80
2018-06-24T17:54:24.458Z,18.50
2018-06-24T17:56:59.210Z,18.20
2018-06-24T17:59:39.835Z,18.40
2018-06-24T18:02:14.808Z,18.30
2018-06-24T18:04:55.010Z,18.00
2018-06-24T18:10:16.516Z,18.30
2018-06-24T18:12:51.667Z,19.50
2018-06-24T18:15:24.553Z,18.20
2018-06-24T18:17:55.585Z,18.90
2018-06-24T18:20:30.412Z,18.40
2018-06-24T18:23:09.006Z,18.20
2018-06-24T18:25:45.184Z,18.10
2018-06-24T18:28:20.568Z,17.90
2018-06-24T18:30:53.621Z,17.90
2018-06-24T18:33:41.748Z,19.40
2018-06-24T18:36:20.652Z,18.10
2018-06-24T18:38:53.532Z,18.20
2018-06-24T18:41:26.178Z,16.60
2018-06-24T18:44:07.863Z,17.80
2018-06-24T18:46:53.564Z,17.80
2018-06-24T18:49:30.049Z,17.70
2018-06-24T18:52:05.024Z,17.60
2018-06-24T18:54:41.464Z,17.70
2018-06-24T18:57:19.565Z,18.00
2018-06-24T18:59:53.724Z,18.00
2018-06-24T19:02:28.983Z,16.50
2018-06-24T19:05:04.731Z,18.20
2018-06-24T19:07:42.210Z,18.10
2018-06-24T19:10:19.967Z,18.00
2018-06-24T19:12:55.305Z,17.80
2018-06-24T19:15:33.474Z,17.80
2018-06-24T19:18:08.658Z,17.80
2018-06-24T19:20:49.224Z,17.60
2018-06-24T19:23:36.112Z,17.80
2018-06-24T19:26:12.466Z,17.90
2018-06-24T19:28:48.589Z,17.90
2018-06-24T19:31:20.974Z,18.10
2018-06-24T19:34:00.496Z,18.20
2018-06-24T19:36:33.582Z,18.20
2018-06-24T19:39:12.948Z,17.80
2018-06-24T19:41:49.611Z,17.80
2018-06-24T19:44:23.839Z,17.90
2018-06-24T19:47:00.481Z,17.90
2018-06-24T19:49:33.692Z,17.90
2018-06-24T19:52:09.345Z,17.80
2018-06-24T19:54:47.731Z,17.90
2018-06-24T19:57:21.212Z,17.90
2018-06-24T19:59:56.826Z,18.30
2018-06-24T20:02:31.489Z,18.40
2018-06-24T20:05:14.738Z,17.80
2018-06-24T20:07:49.144Z,17.30
2018-06-24T20:10:27.369Z,17.00
2018-06-24T20:13:05.078Z,17.10
2018-06-24T20:15:45.342Z,17.40
2018-06-24T20:18:20.451Z,17.50
2018-06-24T20:20:56.061Z,17.40
2018-06-24T20:26:20.014Z,17.40
2018-06-24T20:28:56.074Z,17.30
2018-06-24T20:31:29.586Z,17.20
2018-06-24T20:34:11.883Z,17.10
2018-06-24T20:36:51.964Z,16.70
2018-06-24T20:39:27.200Z,16.60
2018-06-24T20:45:30.408Z,16.40
2018-06-24T20:48:16.985Z,16.20
2018-06-24T20:50:58.573Z,18.10
2018-06-24T20:53:41.298Z,16.30
2018-06-24T20:56:43.219Z,16.30
2018-06-24T21:00:39.246Z,16.50
2018-06-24T21:03:11.540Z,16.70
2018-06-24T21:05:49.668Z,16.60
2018-06-24T21:08:20.640Z,16.70
2018-06-24T21:10:58.803Z,17.00
2018-06-24T21:13:37.949Z,17.20
2018-06-24T21:16:13.700Z,17.30
2018-06-24T21:18:54.949Z,17.20
2018-06-24T21:21:44.178Z,17.30
2018-06-24T21:24:24.613Z,18.60
2018-06-24T21:27:21.836Z,16.90
2018-06-24T21:29:57.718Z,17.10
2018-06-24T21:32:41.953Z,17.10
2018-06-24T21:35:13.921Z,17.20
2018-06-24T21:37:47.561Z,17.50
2018-06-24T21:40:26.853Z,17.80
2018-06-24T21:43:02.980Z,17.90
2018-06-24T21:45:37.003Z,18.00
2018-06-24T21:48:27.405Z,17.90
2018-06-24T21:51:03.421Z,17.70
2018-06-24T21:53:39.091Z,17.50
2018-06-24T21:56:18.701Z,17.20
2018-06-24T21:58:53.491Z,17.20
2018-06-24T22:01:30.845Z,16.90
2018-06-24T22:04:07.347Z,16.80
2018-06-24T22:09:26.918Z,17.20
2018-06-24T22:12:06.344Z,17.30
2018-06-24T22:14:40.994Z,17.30
2018-06-24T22:17:15.735Z,17.10
2018-06-24T22:19:50.108Z,17.30
2018-06-24T22:22:22.572Z,17.60
2018-06-24T22:24:53.805Z,17.60
2018-06-24T22:27:28.998Z,17.30
2018-06-24T22:30:09.914Z,16.80
2018-06-24T22:32:51.550Z,16.60
2018-06-24T22:39:07.014Z,16.00
2018-06-24T22:41:40.940Z,16.00
2018-06-24T22:44:17.084Z,16.10
2018-06-24T22:46:47.587Z,16.00
2018-06-24T22:49:48.260Z,15.90
2018-06-24T22:52:20.567Z,15.80
2018-06-24T22:54:55.916Z,16.00
2018-06-24T22:57:30.685Z,16.10
2018-06-24T23:00:20.593Z,15.90
2018-06-24T23:02:50.994Z,15.60
2018-06-24T23:05:24.717Z,15.60
2018-06-24T23:07:59.179Z,15.60
2018-06-24T23:10:58.135Z,15.50
2018-06-24T23:13:30.518Z,15.40
2018-06-24T23:16:03.272Z,15.60
2018-06-24T23:18:35.291Z,15.70
2018-06-24T23:21:09.691Z,16.00
2018-06-24T23:23:41.511Z,15.60
2018-06-24T23:26:14.924Z,15.50
2018-06-24T23:28:48.463Z,15.50
2018-06-24T23:31:19.431Z,15.20
2018-06-24T23:33:52.131Z,15.00
2018-06-24T23:36:23.703Z,15.20
2018-06-24T23:38:57.042Z,15.40
2018-06-24T23:41:28.950Z,15.50
2018-06-24T23:43:59.673Z,15.50
2018-06-24T23:46:33.739Z,15.30
2018-06-24T23:49:05.125Z,15.50
2018-06-24T23:51:38.716Z,14.70
2018-06-24T23:54:10.381Z,15.60
